createdAt,value
2019-05-11T00:00:55.515Z,0.00
2019-05-11T00:03:55.506Z,0.00
2019-05-11T00:06:55.430Z,0.00
2019-05-11T00:09:57.891Z,0.00
2019-05-11T00:12:55.388Z,0.00
2019-05-11T00:15:55.362Z,0.00
2019-05-11T00:18:55.323Z,0.00
2019-05-11T00:21:55.296Z,0.00
2019-05-11T00:24:55.246Z,0.00
2019-05-11T00:27:55.227Z,0.00
2019-05-11T00:30:55.174Z,0.00
2019-05-11T00:33:55.163Z,0.00
2019-05-11T00:36:55.145Z,0.00
2019-05-11T00:39:55.074Z,0.00
2019-05-11T00:42:55.070Z,0.00
2019-05-11T00:45:55.014Z,0.00
2019-05-11T00:48:55.012Z,0.00
2019-05-11T00:51:54.947Z,0.00
2019-05-11T00:54:54.936Z,0.00
2019-05-11T00:57:54.902Z,0.00
2019-05-11T01:00:54.918Z,0.00
2019-05-11T01:03:54.846Z,0.00
2019-05-11T01:06:54.784Z,0.00
2019-05-11T01:09:54.770Z,0.00
2019-05-11T01:12:54.723Z,0.00
2019-05-11T01:15:54.707Z,0.00
2019-05-11T01:18:54.680Z,0.00
2019-05-11T01:21:54.646Z,0.00
2019-05-11T01:24:54.611Z,0.00
2019-05-11T01:27:54.561Z,0.00
2019-05-11T01:30:54.540Z,0.00
2019-05-11T01:33:54.503Z,0.00
2019-05-11T01:36:54.502Z,0.00
2019-05-11T01:39:54.433Z,0.00
2019-05-11T01:42:54.410Z,0.00
2019-05-11T01:45:54.382Z,0.00
2019-05-11T01:48:54.353Z,0.00
2019-05-11T01:51:54.301Z,0.00
2019-05-11T01:54:54.290Z,0.00
2019-05-11T01:57:54.241Z,0.00
2019-05-11T02:00:54.231Z,0.00
2019-05-11T02:03:54.168Z,0.00
2019-05-11T02:06:54.159Z,0.00
2019-05-11T02:09:54.111Z,0.00
2019-05-11T02:12:54.091Z,0.00
2019-05-11T02:15:54.055Z,0.00
2019-05-11T02:18:54.034Z,0.00
2019-05-11T02:21:53.992Z,0.00
2019-05-11T02:24:53.945Z,0.00
2019-05-11T02:27:53.990Z,0.00
2019-05-11T02:30:53.885Z,0.00
2019-05-11T02:33:53.873Z,0.00
2019-05-11T02:36:53.826Z,0.00
2019-05-11T02:39:53.780Z,0.00
2019-05-11T02:42:53.806Z,0.00
2019-05-11T02:45:53.718Z,0.00
2019-05-11T02:49:00.742Z,0.00
2019-05-11T02:51:53.669Z,0.00
2019-05-11T02:54:53.627Z,0.00
2019-05-11T02:57:53.606Z,0.00
2019-05-11T03:00:53.556Z,0.00
2019-05-11T03:03:53.535Z,0.00
2019-05-11T03:06:53.493Z,0.00
2019-05-11T03:09:53.479Z,4.00
2019-05-11T03:12:53.435Z,4.00
2019-05-11T03:15:53.409Z,4.00
2019-05-11T03:18:53.382Z,8.00
2019-05-11T03:21:53.348Z,8.00
2019-05-11T03:24:53.317Z,12.00
2019-05-11T03:27:53.265Z,12.00
2019-05-11T03:30:53.273Z,24.00
2019-05-11T03:33:53.208Z,28.00
2019-05-11T03:36:53.273Z,40.00
2019-05-11T03:39:53.150Z,52.00
2019-05-11T03:42:53.105Z,64.00
2019-05-11T03:45:53.093Z,76.00
2019-05-11T03:48:53.065Z,92.00
2019-05-11T03:51:53.031Z,104.00
2019-05-11T03:54:52.985Z,132.00
2019-05-11T03:57:52.958Z,168.00
2019-05-11T04:00:52.909Z,196.00
2019-05-11T04:03:52.916Z,200.00
2019-05-11T04:06:52.849Z,220.00
2019-05-11T04:09:52.888Z,232.00
2019-05-11T04:12:52.805Z,244.00
2019-05-11T04:15:52.746Z,280.00
2019-05-11T04:18:52.735Z,356.00
2019-05-11T04:21:52.684Z,456.00
2019-05-11T04:24:52.658Z,532.00
2019-05-11T04:27:52.633Z,580.00
2019-05-11T04:30:52.598Z,640.00
2019-05-11T04:33:52.598Z,756.00
2019-05-11T04:36:52.527Z,856.00
2019-05-11T04:39:52.507Z,856.00
2019-05-11T04:42:55.768Z,900.00
2019-05-11T04:45:52.438Z,1028.00
2019-05-11T04:48:52.390Z,1168.00
2019-05-11T04:51:52.381Z,1316.00
2019-05-11T04:54:52.341Z,1496.00
2019-05-11T04:57:52.303Z,1668.00
2019-05-11T05:00:52.279Z,1904.00
2019-05-11T05:03:54.120Z,2208.00
2019-05-11T05:06:59.786Z,2480.00
2019-05-11T05:09:53.163Z,2840.00
2019-05-11T05:12:53.415Z,3304.00
2019-05-11T05:15:53.123Z,3860.00
2019-05-11T05:18:52.069Z,4248.00
2019-05-11T05:21:52.068Z,4360.00
2019-05-11T05:24:52.004Z,4192.00
2019-05-11T05:27:51.985Z,3820.00
2019-05-11T05:30:51.944Z,3596.00
2019-05-11T05:33:51.926Z,3772.00
2019-05-11T05:36:51.877Z,4148.00
2019-05-11T05:39:51.852Z,4312.00
2019-05-11T05:42:51.827Z,4532.00
2019-05-11T05:45:51.776Z,4608.00
2019-05-11T05:48:51.775Z,4604.00
2019-05-11T05:51:51.710Z,4620.00
2019-05-11T05:54:51.693Z,4668.00
2019-05-11T05:57:51.651Z,4932.00
2019-05-11T06:00:51.623Z,5200.00
2019-05-11T06:03:51.675Z,5256.00
2019-05-11T06:06:51.551Z,4984.00
2019-05-11T06:09:51.528Z,4464.00
2019-05-11T06:12:51.496Z,3908.00
2019-05-11T06:15:51.463Z,3644.00
2019-05-11T06:18:51.420Z,3220.00
2019-05-11T06:21:51.399Z,3152.00
2019-05-11T06:24:51.356Z,3164.00
2019-05-11T06:27:51.337Z,3256.00
2019-05-11T06:30:51.310Z,3372.00
2019-05-11T06:33:51.259Z,3568.00
2019-05-11T06:36:51.249Z,3680.00
2019-05-11T06:39:51.192Z,4100.00
2019-05-11T06:42:51.175Z,4548.00
2019-05-11T06:45:51.148Z,4748.00
2019-05-11T06:48:51.113Z,4700.00
2019-05-11T06:51:51.066Z,5092.00
2019-05-11T06:54:51.049Z,5520.00
2019-05-11T06:57:51.013Z,5700.00
2019-05-11T07:00:50.992Z,5752.00
2019-05-11T07:03:50.933Z,5992.00
2019-05-11T07:06:50.932Z,6416.00
2019-05-11T07:09:50.873Z,6796.00
2019-05-11T07:12:50.856Z,7144.00
2019-05-11T07:15:50.814Z,7476.00
2019-05-11T07:18:50.794Z,7580.00
2019-05-11T07:21:50.762Z,8172.00
2019-05-11T07:24:50.727Z,8160.00
2019-05-11T07:27:50.692Z,8232.00
2019-05-11T07:30:50.686Z,8204.00
2019-05-11T07:33:50.612Z,7872.00
2019-05-11T07:36:50.612Z,7728.00
2019-05-11T07:39:50.550Z,7860.00
2019-05-11T07:42:50.535Z,7568.00
2019-05-11T07:45:50.490Z,7752.00
2019-05-11T07:48:50.466Z,8332.00
2019-05-11T07:51:50.420Z,8684.00
2019-05-11T07:54:52.906Z,9524.00
2019-05-11T07:57:50.375Z,10592.00
2019-05-11T08:00:50.325Z,11608.00
2019-05-11T08:03:50.309Z,12268.00
2019-05-11T08:06:50.257Z,12628.00
2019-05-11T08:09:50.244Z,13856.00
2019-05-11T08:12:50.216Z,15456.00
2019-05-11T08:15:50.170Z,16320.00
2019-05-11T08:18:50.150Z,18048.00
2019-05-11T08:21:50.103Z,18144.00
2019-05-11T08:24:50.076Z,17088.00
2019-05-11T08:27:50.060Z,18144.00
2019-05-11T08:30:50.130Z,17344.00
2019-05-11T08:33:49.975Z,16160.00
2019-05-11T08:36:49.949Z,15584.00
2019-05-11T08:39:49.919Z,16384.00
2019-05-11T08:42:49.868Z,15136.00
2019-05-11T08:45:49.853Z,13852.00
2019-05-11T08:48:59.358Z,14316.00
2019-05-11T08:51:49.791Z,13852.00
2019-05-11T08:54:49.740Z,14440.00
2019-05-11T08:57:49.733Z,13432.00
2019-05-11T09:00:49.684Z,11160.00
2019-05-11T09:03:49.652Z,10992.00
2019-05-11T09:06:49.641Z,10148.00
2019-05-11T09:09:49.604Z,9340.00
2019-05-11T09:12:49.546Z,8364.00
2019-05-11T09:15:49.528Z,8888.00
2019-05-11T09:18:49.484Z,8440.00
2019-05-11T09:21:49.469Z,9240.00
2019-05-11T09:24:49.417Z,8588.00
2019-05-11T09:27:49.396Z,8904.00
2019-05-11T09:30:49.352Z,8520.00
2019-05-11T09:33:49.333Z,10744.00
2019-05-11T09:36:49.305Z,11276.00
2019-05-11T09:39:49.256Z,10840.00
2019-05-11T09:42:49.257Z,9228.00
2019-05-11T09:45:51.811Z,12300.00
2019-05-11T09:48:49.175Z,10016.00
2019-05-11T09:51:49.176Z,9948.00
2019-05-11T09:54:49.094Z,9132.00
2019-05-11T09:57:49.109Z,10576.00
2019-05-11T10:00:49.032Z,12420.00
2019-05-11T10:03:49.016Z,13256.00
2019-05-11T10:06:48.963Z,14604.00
2019-05-11T10:09:48.954Z,13768.00
2019-05-11T10:12:52.331Z,13232.00
2019-05-11T10:16:03.508Z,12588.00
2019-05-11T10:18:49.854Z,11304.00
2019-05-11T10:21:48.859Z,11036.00
2019-05-11T10:24:48.781Z,12920.00
2019-05-11T10:27:49.184Z,9804.00
2019-05-11T10:30:48.873Z,9352.00
2019-05-11T10:33:49.183Z,9196.00
2019-05-11T10:36:48.839Z,9620.00
2019-05-11T10:39:48.934Z,8840.00
2019-05-11T10:42:48.654Z,8644.00
2019-05-11T10:45:48.577Z,9520.00
2019-05-11T10:48:48.567Z,12216.00
2019-05-11T10:51:48.771Z,15192.00
2019-05-11T10:54:48.452Z,12100.00
2019-05-11T10:57:48.869Z,10672.00
2019-05-11T11:00:48.390Z,9492.00
2019-05-11T11:03:48.632Z,9584.00
2019-05-11T11:06:48.676Z,9196.00
2019-05-11T11:09:49.074Z,13752.00
2019-05-11T11:12:48.972Z,18432.00
2019-05-11T11:15:48.613Z,17536.00
2019-05-11T11:18:48.737Z,19232.00
2019-05-11T11:21:48.878Z,14668.00
2019-05-11T11:24:48.289Z,18080.00
2019-05-11T11:27:48.658Z,16992.00
2019-05-11T11:30:48.230Z,20832.00
2019-05-11T11:33:48.896Z,20800.00
2019-05-11T11:36:48.290Z,18208.00
2019-05-11T11:39:47.995Z,17632.00
2019-05-11T11:42:48.067Z,17600.00
2019-05-11T11:45:48.450Z,17600.00
2019-05-11T11:48:48.981Z,20512.00
2019-05-11T11:51:48.421Z,14348.00
2019-05-11T11:54:48.016Z,11760.00
2019-05-11T11:57:48.984Z,15968.00
2019-05-11T12:00:48.317Z,11444.00
2019-05-11T12:03:48.858Z,17728.00
2019-05-11T12:06:49.014Z,39104.00
2019-05-11T12:09:48.473Z,32768.00
2019-05-11T12:12:47.729Z,34976.00
2019-05-11T12:15:48.254Z,28960.00
2019-05-11T12:18:48.591Z,18176.00
2019-05-11T12:21:48.419Z,30400.00
2019-05-11T12:24:48.148Z,28192.00
2019-05-11T12:27:49.087Z,27808.00
2019-05-11T12:30:48.049Z,25376.00
2019-05-11T12:33:48.283Z,24160.00
2019-05-11T12:36:48.058Z,26944.00
2019-05-11T12:39:47.917Z,27168.00
2019-05-11T12:42:48.834Z,15392.00
2019-05-11T12:45:48.159Z,18528.00
2019-05-11T12:48:48.489Z,17216.00
2019-05-11T12:51:48.794Z,14648.00
2019-05-11T12:54:47.888Z,13456.00
2019-05-11T12:57:47.875Z,12072.00
2019-05-11T13:00:47.932Z,8636.00
2019-05-11T13:03:49.249Z,10356.00
2019-05-11T13:06:47.867Z,8944.00
2019-05-11T13:09:48.471Z,7748.00
2019-05-11T13:12:49.032Z,5892.00
2019-05-11T13:15:47.912Z,5544.00
2019-05-11T13:18:48.788Z,5672.00
2019-05-11T13:21:48.652Z,6172.00
2019-05-11T13:24:48.157Z,6936.00
2019-05-11T13:27:48.947Z,6948.00
2019-05-11T13:30:48.777Z,7744.00
2019-05-11T13:33:47.943Z,9200.00
2019-05-11T13:36:48.717Z,8760.00
2019-05-11T13:39:48.620Z,8136.00
2019-05-11T13:42:48.728Z,9140.00
2019-05-11T13:45:47.945Z,8944.00
2019-05-11T13:48:47.735Z,8400.00
2019-05-11T13:51:54.033Z,6892.00
2019-05-11T13:54:53.590Z,5628.00
2019-05-11T13:57:54.016Z,5624.00
2019-05-11T14:00:48.086Z,6072.00
2019-05-11T14:03:48.393Z,6788.00
2019-05-11T14:06:48.186Z,7656.00
2019-05-11T14:09:53.893Z,8964.00
2019-05-11T14:12:47.723Z,9936.00
2019-05-11T14:15:48.134Z,10148.00
2019-05-11T14:18:53.310Z,10480.00
2019-05-11T14:21:48.795Z,10956.00
2019-05-11T14:24:48.235Z,10664.00
2019-05-11T14:27:47.828Z,10388.00
2019-05-11T14:30:48.458Z,10096.00
2019-05-11T14:33:46.090Z,10412.00
2019-05-11T14:36:53.140Z,10172.00
2019-05-11T14:39:48.084Z,8304.00
2019-05-11T14:42:48.741Z,8396.00
2019-05-11T14:45:45.973Z,9564.00
2019-05-11T14:48:52.990Z,8608.00
2019-05-11T14:51:52.939Z,7584.00
2019-05-11T14:54:45.881Z,6764.00
2019-05-11T14:57:48.371Z,4768.00
2019-05-11T15:00:45.830Z,3200.00
2019-05-11T15:03:45.781Z,2292.00
2019-05-11T15:06:45.789Z,2064.00
2019-05-11T15:09:47.940Z,1988.00
2019-05-11T15:12:45.687Z,1784.00
2019-05-11T15:15:45.638Z,1860.00
2019-05-11T15:18:45.625Z,1892.00
2019-05-11T15:21:47.532Z,2240.00
2019-05-11T15:24:45.560Z,2544.00
2019-05-11T15:27:45.509Z,2972.00
2019-05-11T15:30:45.493Z,3596.00
2019-05-11T15:33:45.453Z,4972.00
2019-05-11T15:36:45.427Z,8192.00
2019-05-11T15:39:45.387Z,13812.00
2019-05-11T15:42:45.365Z,13944.00
2019-05-11T15:45:45.328Z,9656.00
2019-05-11T15:48:58.464Z,8980.00
2019-05-11T15:51:48.464Z,8736.00
2019-05-11T15:54:45.217Z,8968.00
2019-05-11T15:57:45.200Z,8904.00
2019-05-11T16:00:45.167Z,8688.00
2019-05-11T16:03:45.122Z,9120.00
2019-05-11T16:06:45.099Z,18624.00
2019-05-11T16:09:45.052Z,7908.00
2019-05-11T16:12:45.041Z,10488.00
2019-05-11T16:15:45.010Z,8108.00
2019-05-11T16:18:44.980Z,10248.00
2019-05-11T16:21:44.965Z,6860.00
2019-05-11T16:24:44.917Z,6592.00
2019-05-11T16:27:44.924Z,5708.00
2019-05-11T16:30:44.837Z,5768.00
2019-05-11T16:33:44.810Z,4956.00
2019-05-11T16:36:44.775Z,4808.00
2019-05-11T16:39:46.765Z,4600.00
2019-05-11T16:42:44.717Z,6356.00
2019-05-11T16:45:44.678Z,5888.00
2019-05-11T16:48:44.634Z,4856.00
2019-05-11T16:51:44.632Z,4828.00
2019-05-11T16:54:44.586Z,5736.00
2019-05-11T16:57:44.539Z,7592.00
2019-05-11T17:00:44.532Z,5928.00
2019-05-11T17:03:44.480Z,6072.00
2019-05-11T17:06:44.535Z,4664.00
2019-05-11T17:09:44.409Z,4160.00
2019-05-11T17:12:44.384Z,3480.00
2019-05-11T17:15:44.374Z,3188.00
2019-05-11T17:18:44.312Z,3304.00
2019-05-11T17:21:44.305Z,4448.00
2019-05-11T17:24:44.249Z,4320.00
2019-05-11T17:27:44.244Z,3828.00
2019-05-11T17:30:44.234Z,3980.00
2019-05-11T17:33:44.152Z,4596.00
2019-05-11T17:36:44.146Z,4352.00
2019-05-11T17:39:44.087Z,4192.00
2019-05-11T17:42:44.065Z,3724.00
2019-05-11T17:45:44.022Z,3292.00
2019-05-11T17:48:44.018Z,3252.00
2019-05-11T17:51:43.974Z,2936.00
2019-05-11T17:54:44.827Z,2836.00
2019-05-11T17:57:43.914Z,2640.00
2019-05-11T18:00:43.858Z,2472.00
2019-05-11T18:03:43.841Z,2376.00
2019-05-11T18:06:43.804Z,2252.00
2019-05-11T18:09:43.797Z,2096.00
2019-05-11T18:12:43.729Z,1960.00
2019-05-11T18:15:43.710Z,1864.00
2019-05-11T18:18:43.673Z,1760.00
2019-05-11T18:21:43.651Z,1604.00
2019-05-11T18:24:43.621Z,1480.00
2019-05-11T18:27:43.568Z,1356.00
2019-05-11T18:30:43.558Z,1236.00
2019-05-11T18:33:43.500Z,1128.00
2019-05-11T18:36:43.492Z,1016.00
2019-05-11T18:39:43.473Z,912.00
2019-05-11T18:42:43.405Z,808.00
2019-05-11T18:45:43.397Z,704.00
2019-05-11T18:48:43.339Z,608.00
2019-05-11T18:51:43.326Z,512.00
2019-05-11T18:54:43.320Z,428.00
2019-05-11T18:57:43.256Z,352.00
2019-05-11T19:00:43.229Z,288.00
2019-05-11T19:03:43.198Z,224.00
2019-05-11T19:06:43.148Z,176.00
2019-05-11T19:09:43.139Z,132.00
2019-05-11T19:12:43.095Z,96.00
2019-05-11T19:15:43.048Z,72.00
2019-05-11T19:18:43.030Z,48.00
2019-05-11T19:21:42.996Z,32.00
2019-05-11T19:24:42.965Z,24.00
2019-05-11T19:27:42.921Z,16.00
2019-05-11T19:30:42.908Z,8.00
2019-05-11T19:33:45.608Z,4.00
2019-05-11T19:36:42.836Z,4.00
2019-05-11T19:39:42.809Z,4.00
2019-05-11T19:42:42.766Z,0.00
2019-05-11T19:45:42.737Z,0.00
2019-05-11T19:48:42.701Z,0.00
2019-05-11T19:51:42.766Z,0.00
2019-05-11T19:54:42.642Z,0.00
2019-05-11T19:57:42.598Z,0.00
2019-05-11T20:00:42.590Z,0.00
2019-05-11T20:03:42.531Z,0.00
2019-05-11T20:06:42.535Z,0.00
2019-05-11T20:09:42.469Z,0.00
2019-05-11T20:12:42.454Z,0.00
2019-05-11T20:15:42.404Z,0.00
2019-05-11T20:18:42.388Z,0.00
2019-05-11T20:21:42.379Z,0.00
2019-05-11T20:24:42.304Z,0.00
2019-05-11T20:27:42.302Z,0.00
2019-05-11T20:30:42.249Z,0.00
2019-05-11T20:33:42.223Z,0.00
2019-05-11T20:36:42.177Z,0.00
2019-05-11T20:39:42.155Z,0.00
2019-05-11T20:42:42.132Z,0.00
2019-05-11T20:45:42.081Z,0.00
2019-05-11T20:48:42.065Z,0.00
2019-05-11T20:51:42.028Z,0.00
2019-05-11T20:54:49.095Z,0.00
2019-05-11T20:57:41.953Z,0.00
2019-05-11T21:00:41.940Z,0.00
2019-05-11T21:03:41.919Z,0.00
2019-05-11T21:06:41.863Z,0.00
2019-05-11T21:09:41.839Z,0.00
2019-05-11T21:12:41.791Z,0.00
2019-05-11T21:15:41.774Z,0.00
2019-05-11T21:18:41.723Z,0.00
2019-05-11T21:21:50.079Z,0.00
2019-05-11T21:24:42.682Z,0.00
2019-05-11T21:27:41.649Z,0.00
2019-05-11T21:30:41.612Z,0.00
2019-05-11T21:33:41.568Z,0.00
2019-05-11T21:36:41.564Z,0.00
2019-05-11T21:39:41.502Z,0.00
2019-05-11T21:42:41.501Z,0.00
2019-05-11T21:45:41.434Z,0.00
2019-05-11T21:48:41.419Z,0.00
2019-05-11T21:51:41.390Z,0.00
2019-05-11T21:54:41.341Z,0.00
2019-05-11T21:57:41.327Z,0.00
2019-05-11T22:00:41.278Z,0.00
2019-05-11T22:03:41.265Z,0.00
2019-05-11T22:06:41.233Z,0.00
2019-05-11T22:09:41.186Z,0.00
2019-05-11T22:12:41.162Z,0.00
2019-05-11T22:15:41.130Z,0.00
2019-05-11T22:18:41.109Z,0.00
2019-05-11T22:21:41.054Z,0.00
2019-05-11T22:24:41.042Z,0.00
2019-05-11T22:27:40.985Z,0.00
2019-05-11T22:30:40.963Z,0.00
2019-05-11T22:33:40.923Z,0.00
2019-05-11T22:36:40.905Z,0.00
2019-05-11T22:39:40.874Z,0.00
2019-05-11T22:42:40.841Z,0.00
2019-05-11T22:45:40.817Z,0.00
2019-05-11T22:48:40.763Z,0.00
2019-05-11T22:51:40.744Z,0.00
2019-05-11T22:54:40.696Z,0.00
2019-05-11T22:57:40.681Z,0.00
2019-05-11T23:00:40.687Z,0.00
2019-05-11T23:03:40.633Z,0.00
2019-05-11T23:06:40.681Z,0.00
2019-05-11T23:09:40.659Z,0.00
2019-05-11T23:12:40.507Z,0.00
2019-05-11T23:15:40.674Z,0.00
2019-05-11T23:18:40.455Z,0.00
2019-05-11T23:21:40.429Z,0.00
2019-05-11T23:24:40.376Z,0.00
2019-05-11T23:27:40.372Z,0.00
2019-05-11T23:30:40.358Z,0.00
2019-05-11T23:33:40.283Z,0.00
2019-05-11T23:36:40.267Z,0.00
2019-05-11T23:39:40.225Z,0.00
2019-05-11T23:42:40.206Z,0.00
2019-05-11T23:45:40.183Z,0.00
2019-05-11T23:48:40.142Z,0.00
2019-05-11T23:51:40.091Z,0.00
2019-05-11T23:54:40.072Z,0.00
2019-05-11T23:57:40.028Z,0.00
